createdAt,value
2019-05-03T00:02:26.574Z,15.10
2019-05-03T00:05:21.496Z,16.63
2019-05-03T00:10:42.602Z,15.17
2019-05-03T00:13:12.650Z,15.93
2019-05-03T00:16:00.104Z,15.57
2019-05-03T00:18:32.611Z,15.23
2019-05-03T00:21:02.188Z,15.43
2019-05-03T00:23:32.442Z,15.30
2019-05-03T00:26:02.656Z,15.83
2019-05-03T00:28:34.050Z,15.33
2019-05-03T00:31:04.113Z,15.80
2019-05-03T00:33:34.083Z,16.07
2019-05-03T00:36:28.440Z,15.20
2019-05-03T00:39:03.122Z,14.80
2019-05-03T00:41:32.558Z,15.70
2019-05-03T00:44:02.303Z,16.77
2019-05-03T00:46:32.732Z,15.23
2019-05-03T00:49:03.811Z,15.17
2019-05-03T00:51:35.211Z,15.93
2019-05-03T00:54:04.627Z,16.20
2019-05-03T00:56:34.392Z,14.93
2019-05-03T00:59:04.087Z,15.33
2019-05-03T01:01:35.079Z,16.13
2019-05-03T01:04:04.694Z,16.10
2019-05-03T01:06:34.064Z,15.40
2019-05-03T01:09:06.507Z,15.93
2019-05-03T01:11:35.924Z,15.77
2019-05-03T01:14:05.591Z,16.90
2019-05-03T01:16:34.956Z,16.60
2019-05-03T01:19:04.460Z,17.47
2019-05-03T01:21:33.933Z,18.07
2019-05-03T01:24:03.342Z,18.87
2019-05-03T01:26:32.733Z,18.47
2019-05-03T01:29:02.750Z,21.27
2019-05-03T01:31:32.338Z,22.77
2019-05-03T01:34:02.392Z,23.07
2019-05-03T01:36:32.188Z,22.77
2019-05-03T01:39:02.133Z,22.23
2019-05-03T01:41:32.327Z,22.53
2019-05-03T01:44:02.030Z,21.83
2019-05-03T01:46:31.758Z,21.80
2019-05-03T01:49:13.328Z,23.97
2019-05-03T01:52:02.215Z,21.47
2019-05-03T01:54:32.921Z,21.33
2019-05-03T01:57:02.584Z,22.10
2019-05-03T01:59:32.210Z,21.83
2019-05-03T02:02:20.583Z,22.27
2019-05-03T02:05:27.022Z,22.03
2019-05-03T02:07:56.485Z,22.20
2019-05-03T02:10:25.929Z,22.90
2019-05-03T02:12:55.267Z,23.40
2019-05-03T02:15:24.684Z,21.83
2019-05-03T02:17:54.113Z,22.97
2019-05-03T02:20:23.546Z,22.83
2019-05-03T02:22:52.961Z,22.37
2019-05-03T02:25:22.394Z,21.23
2019-05-03T02:27:53.673Z,20.07
2019-05-03T02:30:25.002Z,16.60
2019-05-03T02:32:55.140Z,14.67
2019-05-03T02:35:25.585Z,12.30
2019-05-03T02:37:56.329Z,12.57
2019-05-03T02:40:26.929Z,9.33
2019-05-03T02:43:17.872Z,8.20
2019-05-03T02:46:06.010Z,7.93
2019-05-03T02:48:45.848Z,7.80
2019-05-03T02:51:15.725Z,7.70
2019-05-03T02:53:46.357Z,7.53
2019-05-03T02:56:22.190Z,7.07
2019-05-03T02:58:46.927Z,7.47
2019-05-03T03:01:16.582Z,8.07
2019-05-03T03:03:46.440Z,7.43
2019-05-03T03:06:17.307Z,7.07
2019-05-03T03:08:48.733Z,7.17
2019-05-03T03:11:39.119Z,6.33
2019-05-03T03:14:29.797Z,6.83
2019-05-03T03:17:01.708Z,6.73
2019-05-03T03:19:35.157Z,6.07
2019-05-03T03:22:07.254Z,5.97
2019-05-03T03:24:40.019Z,5.90
2019-05-03T03:27:12.477Z,5.60
2019-05-03T03:29:45.714Z,5.87
2019-05-03T03:32:48.909Z,5.70
2019-05-03T03:35:22.815Z,6.23
2019-05-03T03:37:55.767Z,7.63
2019-05-03T03:40:25.489Z,7.97
2019-05-03T03:42:57.027Z,7.10
2019-05-03T03:45:26.994Z,6.03
2019-05-03T03:48:17.007Z,5.97
2019-05-03T03:50:47.808Z,6.17
2019-05-03T03:53:18.187Z,5.80
2019-05-03T03:55:48.987Z,6.33
2019-05-03T03:58:22.782Z,6.03
2019-05-03T04:00:50.375Z,6.30
2019-05-03T04:03:20.963Z,6.73
2019-05-03T04:05:50.448Z,7.17
2019-05-03T04:08:19.978Z,6.90
2019-05-03T04:10:49.320Z,6.40
2019-05-03T04:13:20.719Z,6.70
2019-05-03T04:16:11.948Z,6.83
2019-05-03T04:19:06.570Z,7.00
2019-05-03T04:21:36.140Z,6.80
2019-05-03T04:24:06.183Z,6.57
2019-05-03T04:26:35.913Z,6.10
2019-05-03T04:29:05.635Z,6.00
2019-05-03T04:31:36.849Z,6.17
2019-05-03T04:34:07.382Z,6.83
2019-05-03T04:36:38.318Z,6.50
2019-05-03T04:39:08.165Z,6.90
2019-05-03T04:41:37.731Z,6.43
2019-05-03T04:44:07.100Z,6.37
2019-05-03T04:46:37.687Z,6.10
2019-05-03T04:49:07.127Z,7.17
2019-05-03T04:51:36.653Z,6.57
2019-05-03T04:54:35.615Z,6.13
2019-05-03T04:57:06.747Z,7.83
2019-05-03T04:59:36.363Z,7.80
2019-05-03T05:02:07.263Z,8.67
2019-05-03T05:04:37.784Z,8.63
2019-05-03T05:07:08.650Z,9.33
2019-05-03T05:09:38.080Z,10.23
2019-05-03T05:12:07.785Z,9.83
2019-05-03T05:14:37.107Z,10.53
2019-05-03T05:17:08.890Z,10.00
2019-05-03T05:20:06.772Z,10.43
2019-05-03T05:22:38.869Z,10.03
2019-05-03T05:25:12.312Z,9.43
2019-05-03T05:28:00.163Z,8.60
2019-05-03T05:30:30.062Z,9.73
2019-05-03T05:32:59.417Z,8.87
2019-05-03T05:35:28.842Z,10.27
2019-05-03T05:37:58.863Z,10.93
2019-05-03T05:40:28.248Z,11.57
2019-05-03T05:42:58.917Z,12.73
2019-05-03T05:45:29.009Z,13.83
2019-05-03T05:48:05.966Z,13.47
2019-05-03T05:50:37.769Z,13.43
2019-05-03T05:53:07.227Z,13.67
2019-05-03T05:56:15.667Z,13.33
2019-05-03T05:58:55.415Z,13.13
2019-05-03T06:01:31.158Z,13.63
2019-05-03T06:04:00.848Z,13.97
2019-05-03T06:06:45.132Z,12.60
2019-05-03T06:09:34.417Z,12.17
2019-05-03T06:12:14.884Z,12.07
2019-05-03T06:14:48.410Z,12.83
2019-05-03T06:17:34.736Z,13.33
2019-05-03T06:20:29.644Z,13.20
2019-05-03T06:23:06.580Z,13.93
2019-05-03T06:25:39.218Z,14.77
2019-05-03T06:28:21.416Z,13.90
2019-05-03T06:31:25.285Z,13.63
2019-05-03T06:33:55.337Z,12.40
2019-05-03T06:36:26.029Z,12.13
2019-05-03T06:38:55.740Z,12.87
2019-05-03T06:41:25.610Z,12.80
2019-05-03T06:43:55.276Z,12.63
2019-05-03T06:46:45.615Z,10.70
2019-05-03T06:49:15.597Z,7.83
2019-05-03T06:51:49.475Z,7.53
2019-05-03T06:54:20.561Z,6.47
2019-05-03T06:56:47.973Z,5.23
2019-05-03T06:59:35.928Z,8.70
2019-05-03T07:02:14.874Z,7.40
2019-05-03T07:04:46.608Z,7.23
2019-05-03T07:07:27.853Z,5.33
2019-05-03T07:10:05.038Z,6.43
2019-05-03T07:12:54.560Z,6.47
2019-05-03T07:15:25.404Z,6.50
2019-05-03T07:17:55.647Z,5.43
2019-05-03T07:20:25.707Z,6.45
2019-05-03T07:22:56.015Z,6.50
2019-05-03T07:25:26.742Z,5.63
2019-05-03T07:27:56.512Z,4.43
2019-05-03T07:30:26.195Z,6.30
2019-05-03T07:33:00.252Z,6.63
2019-05-03T07:35:29.667Z,6.47
2019-05-03T07:37:59.057Z,4.50
2019-05-03T07:40:28.903Z,5.87
2019-05-03T07:42:58.362Z,5.43
2019-05-03T07:45:28.960Z,4.50
2019-05-03T07:47:58.459Z,6.03
2019-05-03T07:50:28.140Z,4.97
2019-05-03T07:52:57.528Z,4.77
2019-05-03T07:55:46.144Z,5.37
2019-05-03T07:58:20.007Z,5.10
2019-05-03T08:01:03.532Z,3.73
2019-05-03T08:03:21.122Z,5.73
2019-05-03T08:05:51.723Z,4.87
2019-05-03T08:08:21.215Z,4.70
2019-05-03T08:10:51.663Z,5.40
2019-05-03T08:13:21.019Z,5.83
2019-05-03T08:15:50.402Z,4.97
2019-05-03T08:18:38.868Z,4.90
2019-05-03T08:21:08.293Z,4.90
2019-05-03T08:23:37.783Z,4.63
2019-05-03T08:26:07.190Z,4.77
2019-05-03T08:28:36.571Z,4.83
2019-05-03T08:31:27.622Z,4.13
2019-05-03T08:34:15.988Z,5.17
2019-05-03T08:37:04.999Z,5.40
2019-05-03T08:39:35.647Z,4.10
2019-05-03T08:42:10.333Z,5.10
2019-05-03T08:44:41.295Z,4.60
2019-05-03T08:47:10.858Z,5.10
2019-05-03T08:49:40.275Z,3.73
2019-05-03T08:52:10.838Z,5.13
2019-05-03T08:54:40.208Z,5.70
2019-05-03T08:57:09.576Z,4.77
2019-05-03T08:59:39.071Z,4.83
2019-05-03T09:02:17.779Z,5.93
2019-05-03T09:04:43.036Z,4.03
2019-05-03T09:07:10.975Z,4.87
2019-05-03T09:10:00.730Z,4.73
2019-05-03T09:12:49.128Z,4.90
2019-05-03T09:15:21.434Z,5.07
2019-05-03T09:17:50.688Z,4.70
2019-05-03T09:20:20.140Z,4.77
2019-05-03T09:22:49.540Z,5.13
2019-05-03T09:25:18.903Z,5.27
2019-05-03T09:27:48.292Z,4.50
2019-05-03T09:30:19.201Z,5.17
2019-05-03T09:32:49.778Z,4.23
2019-05-03T09:35:29.763Z,4.63
2019-05-03T09:37:50.197Z,5.30
2019-05-03T09:40:21.378Z,5.43
2019-05-03T09:42:51.207Z,4.83
2019-05-03T09:45:20.960Z,5.03
2019-05-03T09:47:50.454Z,4.20
2019-05-03T09:50:20.082Z,5.40
2019-05-03T09:52:49.479Z,3.63
2019-05-03T09:55:35.617Z,5.03
2019-05-03T09:58:05.519Z,5.00
2019-05-03T10:00:35.346Z,4.40
2019-05-03T10:03:05.699Z,5.40
2019-05-03T10:05:35.335Z,4.80
2019-05-03T10:08:05.224Z,5.27
2019-05-03T10:10:54.016Z,5.30
2019-05-03T10:13:26.754Z,6.13
2019-05-03T10:15:55.019Z,6.60
2019-05-03T10:18:25.998Z,5.10
2019-05-03T10:20:56.320Z,6.43
2019-05-03T10:23:41.406Z,6.33
2019-05-03T10:26:11.246Z,7.07
2019-05-03T10:28:40.761Z,6.77
2019-05-03T10:31:10.814Z,6.90
2019-05-03T10:33:54.387Z,6.97
2019-05-03T10:36:25.143Z,6.37
2019-05-03T10:38:55.775Z,5.83
2019-05-03T10:41:25.369Z,6.03
2019-05-03T10:43:55.620Z,5.57
2019-05-03T10:46:25.221Z,5.37
2019-05-03T10:48:55.851Z,5.30
2019-05-03T10:51:27.600Z,5.60
2019-05-03T10:53:59.418Z,5.57
2019-05-03T10:56:35.881Z,5.47
2019-05-03T10:59:07.193Z,5.07
2019-05-03T11:01:50.780Z,5.33
2019-05-03T11:04:21.934Z,5.87
2019-05-03T11:06:51.310Z,5.77
2019-05-03T11:09:20.729Z,6.00
2019-05-03T11:11:50.162Z,6.20
2019-05-03T11:14:19.631Z,6.27
2019-05-03T11:16:49.062Z,6.87
2019-05-03T11:19:18.430Z,6.50
2019-05-03T11:21:47.794Z,5.60
2019-05-03T11:24:17.526Z,5.20
2019-05-03T11:26:48.627Z,6.80
2019-05-03T11:29:19.159Z,6.37
2019-05-03T11:32:09.566Z,6.93
2019-05-03T11:34:47.336Z,6.20
2019-05-03T11:37:50.790Z,5.33
2019-05-03T11:40:20.117Z,5.53
2019-05-03T11:42:50.598Z,6.00
2019-05-03T11:45:20.695Z,4.93
2019-05-03T11:47:50.222Z,5.17
2019-05-03T11:50:19.568Z,5.30
2019-05-03T11:52:49.046Z,5.67
2019-05-03T11:55:18.370Z,5.87
2019-05-03T11:57:48.949Z,5.40
2019-05-03T12:00:25.690Z,5.60
2019-05-03T12:03:24.909Z,5.67
2019-05-03T12:05:57.328Z,6.53
2019-05-03T12:08:26.671Z,6.00
2019-05-03T12:11:00.757Z,5.37
2019-05-03T12:13:30.993Z,5.97
2019-05-03T12:16:01.698Z,7.27
2019-05-03T12:18:44.817Z,5.10
2019-05-03T12:21:07.616Z,5.70
2019-05-03T12:23:36.723Z,5.00
2019-05-03T12:26:10.810Z,5.67
2019-05-03T12:28:37.205Z,5.63
2019-05-03T12:31:06.926Z,5.07
2019-05-03T12:33:36.329Z,4.50
2019-05-03T12:36:06.036Z,4.53
2019-05-03T12:38:35.403Z,4.73
2019-05-03T12:41:05.538Z,4.80
2019-05-03T12:43:35.204Z,5.77
2019-05-03T12:46:05.358Z,4.53
2019-05-03T12:48:35.935Z,7.67
2019-05-03T12:51:07.049Z,4.53
2019-05-03T12:53:36.974Z,7.13
2019-05-03T12:56:11.389Z,4.10
2019-05-03T12:58:58.678Z,4.30
2019-05-03T13:01:49.936Z,5.37
2019-05-03T13:04:24.695Z,4.40
2019-05-03T13:07:05.408Z,5.27
2019-05-03T13:09:35.785Z,5.70
2019-05-03T13:12:06.860Z,5.60
2019-05-03T13:14:36.318Z,5.00
2019-05-03T13:17:06.122Z,4.90
2019-05-03T13:19:35.486Z,6.77
2019-05-03T13:22:04.909Z,5.63
2019-05-03T13:24:35.294Z,6.23
2019-05-03T13:27:05.552Z,7.00
2019-05-03T13:29:35.246Z,5.87
2019-05-03T13:32:05.562Z,7.70
2019-05-03T13:34:35.541Z,6.33
2019-05-03T13:37:05.314Z,9.20
2019-05-03T13:39:35.976Z,11.77
2019-05-03T13:42:05.850Z,10.87
2019-05-03T13:44:35.674Z,9.20
2019-05-03T13:47:05.530Z,13.27
2019-05-03T13:49:35.413Z,13.33
2019-05-03T13:52:05.391Z,13.57
2019-05-03T13:54:35.157Z,13.30
2019-05-03T13:57:05.133Z,12.53
2019-05-03T13:59:34.600Z,13.90
2019-05-03T14:02:15.296Z,10.70
2019-05-03T14:04:48.691Z,13.60
2019-05-03T14:07:06.695Z,11.53
2019-05-03T14:09:37.250Z,12.67
2019-05-03T14:12:07.617Z,9.70
2019-05-03T14:14:56.339Z,12.20
2019-05-03T14:17:28.573Z,12.70
2019-05-03T14:20:05.459Z,12.07
2019-05-03T14:22:36.891Z,11.60
2019-05-03T14:25:06.701Z,11.87
2019-05-03T14:27:36.119Z,11.33
2019-05-03T14:30:06.039Z,9.53
2019-05-03T14:32:35.911Z,10.90
2019-05-03T14:35:06.647Z,8.83
2019-05-03T14:37:37.973Z,8.63
2019-05-03T14:40:09.082Z,6.80
2019-05-03T14:42:38.505Z,6.37
2019-05-03T14:45:08.243Z,5.57
2019-05-03T14:47:38.042Z,5.30
2019-05-03T14:50:08.079Z,4.90
2019-05-03T14:52:38.644Z,4.60
2019-05-03T14:55:37.093Z,5.10
2019-05-03T14:58:36.525Z,5.70
2019-05-03T15:01:15.555Z,5.43
2019-05-03T15:03:44.926Z,5.27
2019-05-03T15:06:15.480Z,4.80
2019-05-03T15:08:45.120Z,5.00
2019-05-03T15:11:14.894Z,4.70
2019-05-03T15:13:45.581Z,5.40
2019-05-03T15:16:15.066Z,5.43
2019-05-03T15:18:45.361Z,5.40
2019-05-03T15:21:14.850Z,6.17
2019-05-03T15:23:45.342Z,5.27
2019-05-03T15:26:16.171Z,5.30
2019-05-03T15:28:45.554Z,5.63
2019-05-03T15:31:15.003Z,5.77
2019-05-03T15:33:44.949Z,4.93
2019-05-03T15:36:15.418Z,5.57
2019-05-03T15:38:45.038Z,6.20
2019-05-03T15:41:14.726Z,6.80
2019-05-03T15:44:05.302Z,7.07
2019-05-03T15:46:45.083Z,8.17
2019-05-03T15:49:15.224Z,8.80
2019-05-03T15:51:44.708Z,10.83
2019-05-03T15:54:15.300Z,9.90
2019-05-03T15:56:45.006Z,9.37
2019-05-03T15:59:14.992Z,10.70
2019-05-03T16:01:44.511Z,10.17
2019-05-03T16:04:15.356Z,9.73
2019-05-03T16:06:44.891Z,9.33
2019-05-03T16:09:15.244Z,9.40
2019-05-03T16:11:45.142Z,9.07
2019-05-03T16:14:15.279Z,8.60
2019-05-03T16:16:45.186Z,7.30
2019-05-03T16:19:14.816Z,7.60
2019-05-03T16:21:45.235Z,7.43
2019-05-03T16:24:15.472Z,7.37
2019-05-03T16:27:06.926Z,7.40
2019-05-03T16:29:36.266Z,7.00
2019-05-03T16:32:06.195Z,6.87
2019-05-03T16:34:35.580Z,7.10
2019-05-03T16:37:05.555Z,7.93
2019-05-03T16:39:35.428Z,6.60
2019-05-03T16:42:06.923Z,7.37
2019-05-03T16:44:36.461Z,8.10
2019-05-03T16:47:07.199Z,5.30
2019-05-03T16:49:38.787Z,4.03
2019-05-03T16:52:08.192Z,4.23
2019-05-03T16:54:37.624Z,4.10
2019-05-03T16:57:07.010Z,3.83
2019-05-03T16:59:36.435Z,4.57
2019-05-03T17:02:05.920Z,3.90
2019-05-03T17:04:42.923Z,3.80
2019-05-03T17:07:25.644Z,3.50
2019-05-03T17:09:58.656Z,3.30
2019-05-03T17:12:31.917Z,3.60
2019-05-03T17:15:01.246Z,4.17
2019-05-03T17:17:30.685Z,3.73
2019-05-03T17:20:00.148Z,3.47
2019-05-03T17:22:29.611Z,3.63
2019-05-03T17:24:59.040Z,3.57
2019-05-03T17:27:28.424Z,3.03
2019-05-03T17:29:57.880Z,3.37
2019-05-03T17:32:27.263Z,3.67
2019-05-03T17:34:56.636Z,4.23
2019-05-03T17:37:27.319Z,3.13
2019-05-03T17:40:28.818Z,3.20
2019-05-03T17:46:00.363Z,3.57
2019-05-03T17:48:30.455Z,3.10
2019-05-03T17:51:00.481Z,3.40
2019-05-03T17:53:55.046Z,3.90
2019-05-03T17:56:52.787Z,3.23
2019-05-03T17:59:28.380Z,3.00
2019-05-03T18:02:15.496Z,2.80
2019-05-03T18:05:06.790Z,2.77
2019-05-03T18:07:48.320Z,3.00
2019-05-03T18:10:17.752Z,3.23
2019-05-03T18:12:47.236Z,3.00
2019-05-03T18:15:16.566Z,2.80
2019-05-03T18:17:46.309Z,3.63
2019-05-03T18:20:15.724Z,2.60
2019-05-03T18:22:45.189Z,2.30
2019-05-03T18:25:14.702Z,2.40
2019-05-03T18:27:44.622Z,2.00
2019-05-03T18:30:14.207Z,2.20
2019-05-03T18:32:45.212Z,2.40
2019-05-03T18:35:15.301Z,2.37
2019-05-03T18:37:47.762Z,2.37
2019-05-03T18:40:17.074Z,2.43
2019-05-03T18:42:52.336Z,2.53
2019-05-03T18:45:28.508Z,2.20
2019-05-03T18:47:57.894Z,2.50
2019-05-03T18:50:27.253Z,2.57
2019-05-03T18:52:57.011Z,2.40
2019-05-03T18:55:26.449Z,2.53
2019-05-03T18:57:55.821Z,2.30
2019-05-03T19:00:27.437Z,2.20
2019-05-03T19:02:56.805Z,2.40
2019-05-03T19:05:27.892Z,2.47
2019-05-03T19:08:08.322Z,2.40
2019-05-03T19:10:46.850Z,2.33
2019-05-03T19:13:23.426Z,2.40
2019-05-03T19:15:52.711Z,2.70
2019-05-03T19:18:29.609Z,2.33
2019-05-03T19:20:59.000Z,2.50
2019-05-03T19:23:28.620Z,2.03
2019-05-03T19:25:57.989Z,2.30
2019-05-03T19:28:27.377Z,2.73
2019-05-03T19:30:56.768Z,2.70
2019-05-03T19:33:26.574Z,2.43
2019-05-03T19:35:57.068Z,2.83
2019-05-03T19:38:26.462Z,4.03
2019-05-03T19:40:55.890Z,3.50
2019-05-03T19:43:27.069Z,3.77
2019-05-03T19:45:56.555Z,3.27
2019-05-03T19:48:26.070Z,3.10
2019-05-03T19:50:55.568Z,3.37
2019-05-03T19:53:47.796Z,2.90
2019-05-03T19:56:18.491Z,3.60
2019-05-03T19:58:49.459Z,3.00
2019-05-03T20:01:40.534Z,3.67
2019-05-03T20:04:41.552Z,3.90
2019-05-03T20:07:31.839Z,2.97
2019-05-03T20:10:02.611Z,3.33
2019-05-03T20:12:31.967Z,3.30
2019-05-03T20:15:02.747Z,3.50
2019-05-03T20:17:34.600Z,3.07
2019-05-03T20:20:04.793Z,2.90
2019-05-03T20:22:35.099Z,3.20
2019-05-03T20:25:05.040Z,2.80
2019-05-03T20:27:35.220Z,3.33
2019-05-03T20:30:25.671Z,3.60
2019-05-03T20:32:55.553Z,3.33
2019-05-03T20:35:25.331Z,3.80
2019-05-03T20:37:55.346Z,3.50
2019-05-03T20:40:25.614Z,3.60
2019-05-03T20:43:14.136Z,3.70
2019-05-03T20:46:06.311Z,3.53
2019-05-03T20:48:36.785Z,3.13
2019-05-03T20:51:06.124Z,3.37
2019-05-03T20:53:35.520Z,3.50
2019-05-03T20:56:06.265Z,3.33
2019-05-03T20:58:35.889Z,3.13
2019-05-03T21:01:05.398Z,2.80
2019-05-03T21:03:34.838Z,3.13
2019-05-03T21:06:05.320Z,3.13
2019-05-03T21:08:34.785Z,3.20
2019-05-03T21:11:05.449Z,3.30
2019-05-03T21:13:42.030Z,3.20
2019-05-03T21:16:15.933Z,3.17
2019-05-03T21:18:50.770Z,2.90
2019-05-03T21:21:44.510Z,2.90
2019-05-03T21:24:26.262Z,2.80
2019-05-03T21:26:57.321Z,3.20
2019-05-03T21:29:26.783Z,3.17
2019-05-03T21:31:56.247Z,2.93
2019-05-03T21:34:25.672Z,3.30
2019-05-03T21:36:55.045Z,2.93
2019-05-03T21:39:24.776Z,3.20
2019-05-03T21:41:55.561Z,3.40
2019-05-03T21:44:32.239Z,2.80
2019-05-03T21:47:11.580Z,3.30
2019-05-03T21:49:43.612Z,3.27
2019-05-03T21:52:14.685Z,3.50
2019-05-03T21:54:45.078Z,3.57
2019-05-03T21:57:16.618Z,4.03
2019-05-03T21:59:46.056Z,4.07
2019-05-03T22:02:15.574Z,4.07
2019-05-03T22:04:44.996Z,4.60
2019-05-03T22:07:14.447Z,4.17
2019-05-03T22:09:45.277Z,4.03
2019-05-03T22:12:14.786Z,4.00
2019-05-03T22:14:50.225Z,4.23
2019-05-03T22:17:37.202Z,4.43
2019-05-03T22:20:18.582Z,4.30
2019-05-03T22:23:21.981Z,4.67
2019-05-03T22:25:51.449Z,4.50
2019-05-03T22:28:20.847Z,4.80
2019-05-03T22:30:50.164Z,4.97
2019-05-03T22:33:19.525Z,4.73
2019-05-03T22:35:48.918Z,5.43
2019-05-03T22:38:18.351Z,4.50
2019-05-03T22:40:47.821Z,4.40
2019-05-03T22:43:17.292Z,5.63
2019-05-03T22:45:47.688Z,4.67
2019-05-03T22:48:17.125Z,5.00
2019-05-03T22:50:48.378Z,5.23
2019-05-03T22:53:17.745Z,5.43
2019-05-03T22:55:47.143Z,5.03
2019-05-03T22:58:16.709Z,7.20
2019-05-03T23:00:46.155Z,7.67
2019-05-03T23:03:15.602Z,7.63
2019-05-03T23:05:46.432Z,8.83
2019-05-03T23:08:16.940Z,10.23
2019-05-03T23:10:46.327Z,9.63
2019-05-03T23:13:15.695Z,10.47
2019-05-03T23:15:45.057Z,10.80
2019-05-03T23:18:14.797Z,11.40
2019-05-03T23:20:55.284Z,10.27
2019-05-03T23:23:42.506Z,11.73
2019-05-03T23:26:11.868Z,11.90
2019-05-03T23:28:41.232Z,13.50
2019-05-03T23:31:14.773Z,12.93
2019-05-03T23:33:45.274Z,13.40
2019-05-03T23:36:15.347Z,13.03
2019-05-03T23:38:45.375Z,13.70
2019-05-03T23:41:15.294Z,14.57
2019-05-03T23:43:45.136Z,13.97
2019-05-03T23:46:16.505Z,14.87
2019-05-03T23:48:45.841Z,15.67
2019-05-03T23:51:52.432Z,15.57
2019-05-03T23:54:21.896Z,15.60
2019-05-03T23:56:51.344Z,15.17
2019-05-03T23:59:21.296Z,15.40
